Countryside, Kansas
Current Conditions -  °F | °C
As of 2:54 PM on Thursday 18 Dec 2014 (Local Time) from KMKC Reporting Station
Overcast Overcast  
Wind Chill: 28°   Ceiling: 1000
Heat Index: 33°   Visibility: 8mi
Dew Point: 29°   Wind: 6mph
Humidity: 85%   Direction: 60°ENE
Pressure: 30.2"   Gusts: NA
Location:  39.0241°N, 94.6697°W
Report Text: KMKC 182054Z 06005KT 8SM OVC010 01/M02 A3020 RMK AO2 SLP232 60000 T00061017 56011
Loading
Personal Weather Stations






























Interactive Weather Map New forecast layout! Learn more

10-Day Weather Forecast

Advertisements
Track Severe Weather on mobile